createdAt,value
2019-06-20T00:00:49.587Z,18.80
2019-06-20T00:03:18.772Z,18.80
2019-06-20T00:05:48.150Z,18.70
2019-06-20T00:08:17.329Z,18.70
2019-06-20T00:10:46.592Z,18.70
2019-06-20T00:13:23.161Z,18.70
2019-06-20T00:15:52.469Z,18.70
2019-06-20T00:18:40.810Z,18.60
2019-06-20T00:21:09.995Z,18.60
2019-06-20T00:23:39.234Z,18.60
2019-06-20T00:26:08.445Z,18.50
2019-06-20T00:28:37.721Z,18.60
2019-06-20T00:31:07.147Z,18.50
2019-06-20T00:33:36.421Z,18.50
2019-06-20T00:36:05.657Z,18.50
2019-06-20T00:38:34.898Z,18.40
2019-06-20T00:41:04.187Z,18.40
2019-06-20T00:43:33.488Z,18.40
2019-06-20T00:46:02.893Z,18.30
2019-06-20T00:48:32.176Z,18.30
2019-06-20T00:51:01.426Z,18.30
2019-06-20T00:53:30.714Z,18.30
2019-06-20T00:55:59.948Z,18.20
2019-06-20T00:58:29.213Z,18.20
2019-06-20T01:00:58.446Z,18.20
2019-06-20T01:03:27.702Z,18.10
2019-06-20T01:05:56.986Z,18.10
2019-06-20T01:08:26.290Z,18.10
2019-06-20T01:10:55.480Z,18.00
2019-06-20T01:13:33.551Z,18.00
2019-06-20T01:15:55.738Z,18.00
2019-06-20T01:18:24.971Z,17.90
2019-06-20T01:20:54.168Z,17.90
2019-06-20T01:23:23.466Z,17.90
2019-06-20T01:25:52.780Z,17.80
2019-06-20T01:28:22.120Z,17.90
2019-06-20T01:30:51.433Z,17.90
2019-06-20T01:33:21.676Z,17.90
2019-06-20T01:35:50.862Z,17.80
2019-06-20T01:38:20.171Z,17.90
2019-06-20T01:40:49.436Z,17.90
2019-06-20T01:43:18.679Z,17.90
2019-06-20T01:45:47.917Z,17.90
2019-06-20T01:48:17.113Z,18.00
2019-06-20T01:50:46.491Z,18.00
2019-06-20T01:53:15.775Z,18.00
2019-06-20T01:55:44.940Z,17.90
2019-06-20T01:58:14.143Z,17.90
2019-06-20T02:00:46.575Z,17.90
2019-06-20T02:03:16.492Z,17.90
2019-06-20T02:05:45.988Z,17.90
2019-06-20T02:08:15.416Z,17.90
2019-06-20T02:10:44.800Z,17.80
2019-06-20T02:13:14.149Z,17.80
2019-06-20T02:16:02.438Z,17.80
2019-06-20T02:18:31.653Z,17.90
2019-06-20T02:21:00.972Z,17.80
2019-06-20T02:23:30.237Z,17.90
2019-06-20T02:25:59.592Z,17.70
2019-06-20T02:28:29.008Z,17.70
2019-06-20T02:30:58.258Z,17.70
2019-06-20T02:33:27.450Z,17.60
2019-06-20T02:35:56.724Z,17.60
2019-06-20T02:38:25.997Z,17.60
2019-06-20T02:40:55.199Z,17.50
2019-06-20T02:43:24.410Z,17.50
2019-06-20T02:45:53.702Z,17.50
2019-06-20T02:48:22.977Z,17.50
2019-06-20T02:50:52.433Z,17.50
2019-06-20T02:53:21.764Z,17.50
2019-06-20T02:55:51.126Z,17.50
2019-06-20T02:58:20.430Z,17.50
2019-06-20T03:00:57.554Z,17.50
2019-06-20T03:03:27.682Z,17.60
2019-06-20T03:05:57.312Z,17.60
2019-06-20T03:08:26.870Z,17.60
2019-06-20T03:10:56.152Z,17.60
2019-06-20T03:13:25.406Z,17.70
2019-06-20T03:15:54.638Z,17.70
2019-06-20T03:18:23.867Z,17.70
2019-06-20T03:20:53.136Z,17.70
2019-06-20T03:23:22.357Z,17.70
2019-06-20T03:25:51.567Z,17.70
2019-06-20T03:28:20.928Z,17.70
2019-06-20T03:30:50.337Z,17.80
2019-06-20T03:33:19.628Z,17.80
2019-06-20T03:35:48.873Z,17.70
2019-06-20T03:38:18.046Z,17.70
2019-06-20T03:40:47.266Z,17.60
2019-06-20T03:43:16.502Z,17.60
2019-06-20T03:45:45.704Z,17.60
2019-06-20T03:48:14.982Z,17.60
2019-06-20T03:50:44.451Z,17.60
2019-06-20T03:53:17.195Z,17.60
2019-06-20T03:55:46.496Z,17.60
2019-06-20T03:58:15.728Z,17.70
2019-06-20T04:00:45.058Z,17.70
2019-06-20T04:03:14.415Z,17.70
2019-06-20T04:05:43.633Z,17.70
2019-06-20T04:08:13.063Z,17.60
2019-06-20T04:10:42.428Z,17.60
2019-06-20T04:13:11.731Z,17.70
2019-06-20T04:15:41.087Z,17.70
2019-06-20T04:18:10.373Z,17.70
2019-06-20T04:20:39.543Z,17.80
2019-06-20T04:23:08.763Z,17.80
2019-06-20T04:25:38.027Z,17.80
2019-06-20T04:28:07.283Z,17.80
2019-06-20T04:30:36.586Z,17.80
2019-06-20T04:33:05.843Z,17.80
2019-06-20T04:35:35.008Z,17.80
2019-06-20T04:38:04.293Z,17.80
2019-06-20T04:40:33.601Z,17.80
2019-06-20T04:43:02.806Z,17.80
2019-06-20T04:46:00.164Z,17.90
2019-06-20T04:48:29.499Z,18.00
2019-06-20T04:50:58.763Z,18.10
2019-06-20T04:53:28.080Z,18.10
2019-06-20T04:55:57.352Z,18.10
2019-06-20T04:58:26.579Z,18.10
2019-06-20T05:00:56.081Z,18.20
2019-06-20T05:03:25.571Z,18.10
2019-06-20T05:05:54.782Z,18.20
2019-06-20T05:08:24.024Z,18.20
2019-06-20T05:10:53.295Z,18.30
2019-06-20T05:13:22.705Z,18.30
2019-06-20T05:15:53.215Z,18.40
2019-06-20T05:18:22.670Z,18.30
2019-06-20T05:20:51.888Z,18.30
2019-06-20T05:23:21.146Z,18.20
2019-06-20T05:25:50.354Z,18.20
2019-06-20T05:28:19.803Z,18.20
2019-06-20T05:30:48.996Z,18.20
2019-06-20T05:33:18.211Z,18.20
2019-06-20T05:35:47.509Z,18.20
2019-06-20T05:38:16.841Z,18.20
2019-06-20T05:40:46.099Z,18.20
2019-06-20T05:43:15.303Z,18.30
2019-06-20T05:45:48.385Z,18.40
2019-06-20T05:48:15.469Z,18.50
2019-06-20T05:50:44.827Z,18.70
2019-06-20T05:53:14.075Z,18.70
2019-06-20T05:55:43.296Z,18.80
2019-06-20T05:58:12.674Z,18.80
2019-06-20T06:00:41.913Z,18.90
2019-06-20T06:03:13.667Z,19.00
2019-06-20T06:05:42.219Z,19.20
2019-06-20T06:08:11.406Z,19.40
2019-06-20T06:10:53.519Z,19.50
2019-06-20T06:13:22.835Z,20.00
2019-06-20T06:15:52.185Z,21.10
2019-06-20T06:18:21.416Z,22.40
2019-06-20T06:20:50.615Z,23.30
2019-06-20T06:23:19.806Z,23.90
2019-06-20T06:25:49.100Z,24.20
2019-06-20T06:28:18.390Z,24.00
2019-06-20T06:30:47.715Z,24.00
2019-06-20T06:33:17.096Z,24.60
2019-06-20T06:35:46.379Z,24.60
2019-06-20T06:38:21.826Z,24.30
2019-06-20T06:40:46.566Z,24.00
2019-06-20T06:43:15.907Z,23.30
2019-06-20T06:45:45.310Z,22.50
2019-06-20T06:48:14.596Z,21.90
2019-06-20T06:50:43.818Z,21.20
2019-06-20T06:53:13.090Z,20.80
2019-06-20T06:55:42.337Z,20.40
2019-06-20T06:58:11.655Z,20.30
2019-06-20T07:00:40.898Z,20.50
2019-06-20T07:03:10.178Z,20.60
2019-06-20T07:05:39.790Z,20.80
2019-06-20T07:08:09.055Z,21.00
2019-06-20T07:10:38.357Z,21.20
2019-06-20T07:13:07.674Z,21.10
2019-06-20T07:15:36.925Z,21.00
2019-06-20T07:18:06.160Z,21.10
2019-06-20T07:20:35.326Z,22.30
2019-06-20T07:23:04.777Z,23.20
2019-06-20T07:25:34.003Z,23.60
2019-06-20T07:28:03.191Z,23.70
2019-06-20T07:30:32.396Z,25.00
2019-06-20T07:33:01.680Z,25.30
2019-06-20T07:35:31.017Z,24.90
2019-06-20T07:38:00.309Z,24.50
2019-06-20T07:40:29.694Z,23.80
2019-06-20T07:42:59.004Z,22.80
2019-06-20T07:45:28.539Z,22.50
2019-06-20T07:47:58.373Z,22.10
2019-06-20T07:50:27.935Z,22.30
2019-06-20T07:53:02.545Z,22.40
2019-06-20T07:55:28.491Z,22.40
2019-06-20T07:57:57.793Z,23.00
2019-06-20T08:00:27.512Z,24.30
2019-06-20T08:02:56.801Z,25.60
2019-06-20T08:05:26.006Z,25.80
2019-06-20T08:07:55.289Z,26.20
2019-06-20T08:10:24.735Z,26.50
2019-06-20T08:12:54.243Z,25.80
2019-06-20T08:15:24.126Z,25.50
2019-06-20T08:17:53.306Z,25.40
2019-06-20T08:20:22.696Z,25.40
2019-06-20T08:22:53.451Z,25.40
2019-06-20T08:25:23.239Z,25.10
2019-06-20T08:27:53.050Z,24.50
2019-06-20T08:30:25.731Z,25.40
2019-06-20T08:32:56.130Z,25.60
2019-06-20T08:35:27.701Z,24.80
2019-06-20T08:37:57.817Z,24.90
2019-06-20T08:40:29.525Z,26.30
2019-06-20T08:43:00.207Z,26.30
2019-06-20T08:45:31.251Z,25.20
2019-06-20T08:48:00.494Z,25.40
2019-06-20T08:50:30.171Z,26.90
2019-06-20T08:52:59.794Z,27.40
2019-06-20T08:55:29.383Z,27.90
2019-06-20T08:57:59.675Z,28.20
2019-06-20T09:00:31.376Z,28.10
2019-06-20T09:03:00.773Z,28.20
2019-06-20T09:05:30.917Z,27.40
2019-06-20T09:10:38.135Z,25.70
2019-06-20T09:15:49.295Z,24.10
2019-06-20T09:18:18.608Z,24.10
2019-06-20T09:20:47.849Z,23.90
2019-06-20T09:23:17.058Z,24.20
2019-06-20T09:25:52.340Z,24.50
2019-06-20T09:28:21.892Z,24.10
2019-06-20T09:30:52.219Z,24.10
2019-06-20T09:33:22.117Z,23.90
2019-06-20T09:35:52.712Z,23.60
2019-06-20T09:38:23.935Z,23.70
2019-06-20T09:40:53.291Z,23.50
2019-06-20T09:43:27.602Z,23.70
2019-06-20T09:45:54.518Z,24.00
2019-06-20T09:48:23.928Z,24.00
2019-06-20T09:50:54.548Z,23.40
2019-06-20T09:53:23.951Z,23.30
2019-06-20T09:55:53.723Z,23.60
2019-06-20T09:58:23.092Z,24.40
2019-06-20T10:00:52.862Z,24.80
2019-06-20T10:03:22.242Z,25.00
2019-06-20T10:05:52.469Z,25.80
2019-06-20T10:08:21.941Z,26.80
2019-06-20T10:10:52.417Z,25.90
2019-06-20T10:13:21.868Z,25.80
2019-06-20T10:15:51.511Z,25.70
2019-06-20T10:18:20.959Z,25.10
2019-06-20T10:20:51.131Z,24.00
2019-06-20T10:23:20.709Z,24.30
2019-06-20T10:25:49.923Z,24.40
2019-06-20T10:28:20.025Z,24.70
2019-06-20T10:30:49.401Z,24.60
2019-06-20T10:33:18.616Z,24.50
2019-06-20T10:35:48.437Z,23.90
2019-06-20T10:41:03.851Z,22.70
2019-06-20T10:43:33.026Z,21.90
2019-06-20T10:46:02.434Z,21.50
2019-06-20T10:48:31.672Z,21.00
2019-06-20T10:51:18.905Z,21.10
2019-06-20T10:53:49.214Z,21.40
2019-06-20T10:56:18.622Z,21.50
2019-06-20T10:58:48.448Z,21.80
2019-06-20T11:01:17.723Z,22.00
2019-06-20T11:03:47.814Z,22.10
2019-06-20T11:06:17.146Z,22.50
2019-06-20T11:08:47.237Z,22.50
2019-06-20T11:11:16.571Z,22.70
2019-06-20T11:13:46.554Z,23.00
2019-06-20T11:16:15.926Z,23.30
2019-06-20T11:18:46.289Z,23.90
2019-06-20T11:21:15.544Z,24.50
2019-06-20T11:23:45.261Z,24.60
2019-06-20T11:26:14.565Z,24.70
2019-06-20T11:28:44.776Z,24.80
2019-06-20T11:31:14.124Z,25.10
2019-06-20T11:33:44.153Z,25.20
2019-06-20T11:36:13.627Z,25.40
2019-06-20T11:38:42.925Z,25.40
2019-06-20T11:41:12.349Z,24.90
2019-06-20T11:43:42.220Z,24.50
2019-06-20T11:46:11.816Z,24.60
2019-06-20T11:48:41.187Z,24.60
2019-06-20T11:51:10.553Z,24.90
2019-06-20T11:53:40.659Z,25.00
2019-06-20T11:56:10.227Z,25.00
2019-06-20T11:58:39.449Z,25.30
2019-06-20T12:01:08.815Z,25.00
2019-06-20T12:03:39.146Z,24.80
2019-06-20T12:06:09.148Z,24.50
2019-06-20T12:08:39.640Z,24.90
2019-06-20T12:11:09.421Z,25.10
2019-06-20T12:13:39.321Z,25.30
2019-06-20T12:16:09.585Z,25.50
2019-06-20T12:18:40.223Z,25.70
2019-06-20T12:21:09.795Z,25.80
2019-06-20T12:23:39.545Z,25.60
2019-06-20T12:26:09.937Z,25.20
2019-06-20T12:28:40.660Z,24.60
2019-06-20T12:31:19.333Z,24.50
2019-06-20T12:33:41.066Z,24.50
2019-06-20T12:36:10.336Z,24.90
2019-06-20T12:38:40.960Z,25.00
2019-06-20T12:41:10.477Z,25.00
2019-06-20T12:43:40.318Z,25.10
2019-06-20T12:46:09.748Z,25.20
2019-06-20T12:48:39.938Z,25.30
2019-06-20T12:51:10.041Z,25.00
2019-06-20T12:53:40.446Z,24.80
2019-06-20T12:56:10.209Z,25.00
2019-06-20T12:58:40.598Z,24.90
2019-06-20T13:01:10.530Z,24.90
2019-06-20T13:03:40.398Z,24.40
2019-06-20T13:06:09.986Z,24.00
2019-06-20T13:08:40.695Z,23.60
2019-06-20T13:11:10.278Z,23.30
2019-06-20T13:13:40.560Z,23.20
2019-06-20T13:16:09.971Z,23.30
2019-06-20T13:18:39.653Z,23.20
2019-06-20T13:21:10.334Z,23.20
2019-06-20T13:23:40.192Z,23.00
2019-06-20T13:26:10.559Z,22.60
2019-06-20T13:28:59.464Z,22.20
2019-06-20T13:31:10.737Z,21.70
2019-06-20T13:33:40.878Z,21.40
2019-06-20T13:36:10.590Z,21.20
2019-06-20T13:38:41.201Z,20.80
2019-06-20T13:41:10.934Z,20.70
2019-06-20T13:43:40.267Z,20.90
2019-06-20T13:46:09.507Z,21.00
2019-06-20T13:48:38.977Z,21.20
2019-06-20T13:51:09.620Z,21.50
2019-06-20T13:53:39.218Z,21.60
2019-06-20T13:56:10.040Z,21.70
2019-06-20T13:58:40.518Z,21.90
2019-06-20T14:01:10.070Z,22.30
2019-06-20T14:03:41.654Z,22.70
2019-06-20T14:06:10.361Z,23.00
2019-06-20T14:08:42.389Z,23.20
2019-06-20T14:11:10.601Z,23.10
2019-06-20T14:13:41.100Z,23.40
2019-06-20T14:16:11.033Z,23.40
2019-06-20T14:18:42.559Z,23.60
2019-06-20T14:21:11.360Z,23.40
2019-06-20T14:23:41.239Z,23.10
2019-06-20T14:26:11.706Z,23.10
2019-06-20T14:28:41.616Z,22.70
2019-06-20T14:31:11.987Z,22.60
2019-06-20T14:33:42.480Z,22.80
2019-06-20T14:36:12.327Z,22.90
2019-06-20T14:38:43.893Z,23.10
2019-06-20T14:41:12.521Z,23.50
2019-06-20T14:43:42.995Z,23.70
2019-06-20T14:46:12.661Z,23.80
2019-06-20T14:48:41.844Z,24.00
2019-06-20T14:51:11.256Z,23.90
2019-06-20T14:53:40.448Z,24.00
2019-06-20T14:56:09.626Z,24.20
2019-06-20T14:58:38.902Z,24.10
2019-06-20T15:01:08.120Z,24.20
2019-06-20T15:03:37.380Z,24.40
2019-06-20T15:06:06.606Z,24.20
2019-06-20T15:08:35.865Z,23.80
2019-06-20T15:11:05.082Z,23.60
2019-06-20T15:13:34.412Z,23.40
2019-06-20T15:16:03.751Z,23.20
2019-06-20T15:18:33.059Z,22.90
2019-06-20T15:21:02.365Z,23.10
2019-06-20T15:23:31.850Z,23.00
2019-06-20T15:26:01.148Z,23.20
2019-06-20T15:28:30.451Z,23.10
2019-06-20T15:30:59.717Z,23.00
2019-06-20T15:33:28.931Z,23.10
2019-06-20T15:35:58.441Z,23.20
2019-06-20T15:38:28.542Z,23.20
2019-06-20T15:40:57.808Z,23.30
2019-06-20T15:43:27.124Z,23.30
2019-06-20T15:45:56.346Z,23.20
2019-06-20T15:48:25.691Z,23.40
2019-06-20T15:50:55.051Z,23.60
2019-06-20T15:53:24.258Z,23.70
2019-06-20T15:55:54.368Z,23.50
2019-06-20T15:58:23.595Z,23.30
2019-06-20T16:00:52.868Z,23.10
2019-06-20T16:03:22.155Z,23.00
2019-06-20T16:05:54.300Z,22.80
2019-06-20T16:08:23.649Z,22.60
2019-06-20T16:10:53.063Z,22.40
2019-06-20T16:13:22.267Z,22.10
2019-06-20T16:15:51.865Z,22.10
2019-06-20T16:18:21.033Z,22.30
2019-06-20T16:20:50.492Z,22.10
2019-06-20T16:23:19.812Z,22.30
2019-06-20T16:25:49.168Z,22.40
2019-06-20T16:28:18.579Z,22.40
2019-06-20T16:30:47.866Z,22.30
2019-06-20T16:33:25.314Z,22.10
2019-06-20T16:35:48.139Z,22.10
2019-06-20T16:38:17.529Z,21.90
2019-06-20T16:40:47.743Z,21.90
2019-06-20T16:43:17.197Z,21.70
2019-06-20T16:45:46.468Z,21.50
2019-06-20T16:48:15.954Z,21.50
2019-06-20T16:50:46.198Z,21.50
2019-06-20T16:53:16.442Z,21.50
2019-06-20T16:55:45.764Z,21.50
2019-06-20T16:58:15.090Z,21.80
2019-06-20T17:00:51.497Z,22.00
2019-06-20T17:03:20.928Z,22.20
2019-06-20T17:05:50.188Z,22.40
2019-06-20T17:08:19.487Z,22.00
2019-06-20T17:10:48.790Z,21.70
2019-06-20T17:13:18.015Z,21.80
2019-06-20T17:15:47.266Z,21.60
2019-06-20T17:18:16.558Z,21.70
2019-06-20T17:20:45.817Z,21.70
2019-06-20T17:23:15.226Z,21.70
2019-06-20T17:25:44.586Z,21.50
2019-06-20T17:28:13.993Z,21.50
2019-06-20T17:30:43.194Z,21.50
2019-06-20T17:33:12.520Z,21.40
2019-06-20T17:35:41.861Z,21.40
2019-06-20T17:38:11.143Z,21.30
2019-06-20T17:40:40.366Z,21.40
2019-06-20T17:43:10.604Z,21.30
2019-06-20T17:45:39.929Z,21.40
2019-06-20T17:48:09.343Z,21.30
2019-06-20T17:50:38.632Z,21.40
2019-06-20T17:53:07.903Z,21.30
2019-06-20T17:55:37.119Z,21.20
2019-06-20T17:58:06.468Z,21.00
2019-06-20T18:00:36.865Z,20.90
2019-06-20T18:03:06.208Z,21.00
2019-06-20T18:05:35.547Z,20.80
2019-06-20T18:08:14.626Z,20.90
2019-06-20T18:10:35.835Z,20.90
2019-06-20T18:13:05.062Z,20.90
2019-06-20T18:15:34.397Z,20.80
2019-06-20T18:18:03.700Z,21.00
2019-06-20T18:20:33.029Z,21.00
2019-06-20T18:23:02.636Z,20.90
2019-06-20T18:25:32.074Z,20.80
2019-06-20T18:28:01.308Z,20.80
2019-06-20T18:30:41.277Z,20.90
2019-06-20T18:33:10.515Z,21.00
2019-06-20T18:35:39.949Z,20.80
2019-06-20T18:38:09.214Z,20.60
2019-06-20T18:40:38.689Z,20.50
2019-06-20T18:43:08.268Z,20.50
2019-06-20T18:45:37.580Z,20.50
2019-06-20T18:48:06.969Z,20.40
2019-06-20T18:50:36.297Z,20.30
2019-06-20T18:53:05.768Z,20.20
2019-06-20T18:55:35.094Z,20.20
2019-06-20T18:58:04.530Z,20.20
2019-06-20T19:00:35.182Z,20.10
2019-06-20T19:03:05.165Z,20.10
2019-06-20T19:05:34.634Z,20.20
2019-06-20T19:08:03.944Z,20.20
2019-06-20T19:10:33.768Z,20.00
2019-06-20T19:13:03.543Z,19.90
2019-06-20T19:15:33.043Z,19.90
2019-06-20T19:18:02.295Z,19.80
2019-06-20T19:20:31.780Z,19.70
2019-06-20T19:23:01.114Z,19.50
2019-06-20T19:25:38.262Z,19.40
2019-06-20T19:28:07.578Z,19.40
2019-06-20T19:30:45.920Z,19.30
2019-06-20T19:33:15.232Z,19.40
2019-06-20T19:35:44.525Z,19.20
2019-06-20T19:38:13.821Z,19.10
2019-06-20T19:40:46.784Z,19.10
2019-06-20T19:43:16.788Z,19.00
2019-06-20T19:45:46.471Z,18.90
2019-06-20T19:48:17.659Z,18.90
2019-06-20T19:50:47.029Z,18.90
2019-06-20T19:53:16.579Z,18.70
2019-06-20T19:55:45.994Z,18.70
2019-06-20T19:58:15.448Z,18.70
2019-06-20T20:00:45.526Z,18.70
2019-06-20T20:03:15.178Z,18.60
2019-06-20T20:05:45.057Z,18.60
2019-06-20T20:08:14.291Z,18.60
2019-06-20T20:10:45.621Z,18.50
2019-06-20T20:13:17.211Z,18.40
2019-06-20T20:15:46.410Z,18.30
2019-06-20T20:18:16.139Z,18.30
2019-06-20T20:20:47.564Z,18.30
2019-06-20T20:23:17.142Z,18.20
2019-06-20T20:25:46.461Z,18.10
2019-06-20T20:28:15.952Z,18.10
2019-06-20T20:30:45.365Z,18.10
2019-06-20T20:33:14.658Z,18.10
2019-06-20T20:35:43.857Z,18.10
2019-06-20T20:38:13.126Z,18.10
2019-06-20T20:40:42.387Z,18.00
2019-06-20T20:43:11.668Z,17.90
2019-06-20T20:45:41.322Z,17.90
2019-06-20T20:48:10.731Z,17.90
2019-06-20T20:50:40.013Z,17.90
2019-06-20T20:53:09.531Z,17.90
2019-06-20T20:55:39.327Z,17.90
2019-06-20T20:58:08.706Z,17.80
2019-06-20T21:00:51.590Z,17.80
2019-06-20T21:03:21.185Z,17.80
2019-06-20T21:05:51.830Z,17.60
2019-06-20T21:08:21.370Z,17.60
2019-06-20T21:10:50.898Z,17.50
2019-06-20T21:13:20.236Z,17.50
2019-06-20T21:15:49.524Z,17.40
2019-06-20T21:18:18.826Z,17.40
2019-06-20T21:21:07.244Z,17.40
2019-06-20T21:23:36.557Z,17.30
2019-06-20T21:26:05.802Z,17.30
2019-06-20T21:28:35.093Z,17.30
2019-06-20T21:31:04.508Z,17.20
2019-06-20T21:33:35.665Z,17.20
2019-06-20T21:36:08.880Z,17.20
2019-06-20T21:38:35.888Z,17.10
2019-06-20T21:41:05.102Z,17.10
2019-06-20T21:43:34.293Z,17.00
2019-06-20T21:46:06.673Z,17.00
2019-06-20T21:48:34.599Z,16.90
2019-06-20T21:51:04.010Z,16.90
2019-06-20T21:53:33.327Z,16.90
2019-06-20T21:56:02.675Z,16.80
2019-06-20T21:58:32.039Z,16.80
2019-06-20T22:01:02.386Z,16.70
2019-06-20T22:03:31.789Z,16.60
2019-06-20T22:06:01.050Z,16.60
2019-06-20T22:08:30.378Z,16.50
2019-06-20T22:10:59.641Z,16.50
2019-06-20T22:13:28.852Z,16.40
2019-06-20T22:15:58.193Z,16.30
2019-06-20T22:18:27.634Z,16.20
2019-06-20T22:20:57.018Z,16.20
2019-06-20T22:23:26.358Z,16.10
2019-06-20T22:25:55.551Z,16.00
2019-06-20T22:28:24.885Z,16.00
2019-06-20T22:30:56.171Z,16.00
2019-06-20T22:33:25.510Z,16.00
2019-06-20T22:35:54.915Z,15.90
2019-06-20T22:38:24.203Z,15.90
2019-06-20T22:40:53.481Z,15.90
2019-06-20T22:43:22.700Z,15.90
2019-06-20T22:45:52.041Z,15.80
2019-06-20T22:48:21.321Z,15.80
2019-06-20T22:50:50.512Z,15.80
2019-06-20T22:53:19.866Z,15.80
2019-06-20T22:55:49.103Z,15.70
2019-06-20T22:58:18.302Z,15.70
2019-06-20T23:00:47.511Z,15.70
2019-06-20T23:03:16.704Z,15.70
2019-06-20T23:05:45.887Z,15.70
2019-06-20T23:08:34.174Z,15.70
2019-06-20T23:11:03.378Z,15.60
2019-06-20T23:13:32.631Z,15.60
2019-06-20T23:16:01.955Z,15.60
2019-06-20T23:18:31.264Z,15.50
2019-06-20T23:21:04.440Z,15.50
2019-06-20T23:23:31.443Z,15.40
2019-06-20T23:26:02.327Z,15.40
2019-06-20T23:28:33.478Z,15.30
2019-06-20T23:31:02.926Z,15.30
2019-06-20T23:33:32.590Z,15.30
2019-06-20T23:36:01.840Z,15.30
2019-06-20T23:38:31.284Z,15.20
2019-06-20T23:41:00.481Z,15.20
2019-06-20T23:43:29.788Z,15.10
2019-06-20T23:45:59.158Z,15.10
2019-06-20T23:48:28.332Z,15.00
2019-06-20T23:50:57.524Z,15.00
2019-06-20T23:53:27.672Z,15.00
2019-06-20T23:55:56.988Z,15.00
2019-06-20T23:58:26.386Z,14.90
